EGTE/EXT METAR and TAF weather

Enter ICAO airport designator
Station Type Date Time Source
EGTE METAR 2019/12/07 20:50 UTC NOAA

EGTE 072050Z 20017KT 9999 BKN018 11/09 Q1009


Station Type Date Time Source
EGTE Decoded METAR 2019/12/07 20:50 UTC NOAA

Exeter Airport, United Kingdom (EGTE) 50-44N 003-25W
Dec 07, 2019 - 03:50 PM EST / 2019.12.07 2050 UTC
Wind: from the SSW (200 degrees) at 20 MPH (17 KT):0
Visibility: greater than 7 mile(s):0
Sky conditions: mostly cloudy
Temperature: 51 F (11 C)
Dew Point: 48 F (9 C)
Relative Humidity: 87%
Pressure (altimeter): 29.80 in. Hg (1009 hPa)
ob: EGTE 072050Z 20017KT 9999 BKN018 11/09 Q1009
cycle: 21

Station Type Date Time Source
EGTE TAF 2012/04/19 12:15 UTC NOAA

TAF TAF EGTE 191401Z 1912/1924 31016KT 9999 SCT030 SCT035 PROB40
TEMPO 1915/1918 7000 SHRA BKN014

Example: see airport list